createdAt,value
2018-03-18T00:00:24.796Z,0.00
2018-03-18T00:01:24.775Z,4.00
2018-03-18T00:03:17.742Z,4.00
2018-03-18T00:04:17.718Z,4.00
2018-03-18T00:06:10.694Z,0.00
2018-03-18T00:07:10.700Z,4.00
2018-03-18T00:09:03.749Z,4.00
2018-03-18T00:10:03.654Z,4.00
2018-03-18T00:11:56.602Z,4.00
2018-03-18T00:12:56.605Z,4.00
2018-03-18T00:13:56.615Z,4.00
2018-03-18T00:15:49.585Z,0.00
2018-03-18T00:16:49.555Z,0.00
2018-03-18T00:18:42.533Z,0.00
2018-03-18T00:19:42.515Z,0.00
2018-03-18T00:21:35.496Z,4.00
2018-03-18T00:22:35.480Z,0.00
2018-03-18T00:24:28.447Z,4.00
2018-03-18T00:25:28.440Z,4.00
2018-03-18T00:27:21.399Z,4.00
2018-03-18T00:28:21.400Z,0.00
2018-03-18T00:30:14.371Z,0.00
2018-03-18T00:31:14.343Z,0.00
2018-03-18T00:33:07.296Z,0.00
2018-03-18T00:34:07.291Z,4.00
2018-03-18T00:36:00.281Z,4.00
2018-03-18T00:37:00.248Z,4.00
2018-03-18T00:38:53.239Z,4.00
2018-03-18T00:39:53.236Z,0.00
2018-03-18T00:41:46.178Z,0.00
2018-03-18T00:42:46.165Z,4.00
2018-03-18T00:44:39.169Z,4.00
2018-03-18T00:45:39.140Z,4.00
2018-03-18T00:47:32.102Z,4.00
2018-03-18T00:48:32.089Z,4.00
2018-03-18T00:50:25.074Z,4.00
2018-03-18T00:51:25.039Z,4.00
2018-03-18T00:53:18.495Z,4.00
2018-03-18T00:54:17.993Z,0.00
2018-03-18T00:56:10.982Z,0.00
2018-03-18T00:57:10.949Z,4.00
2018-03-18T00:59:03.916Z,4.00
2018-03-18T01:00:03.982Z,0.00
2018-03-18T01:01:56.893Z,4.00
2018-03-18T01:02:56.856Z,4.00
2018-03-18T01:04:49.844Z,4.00
2018-03-18T01:05:49.828Z,0.00
2018-03-18T01:07:42.804Z,4.00
2018-03-18T01:08:42.828Z,4.00
2018-03-18T01:10:35.796Z,4.00
2018-03-18T01:11:35.743Z,4.00
2018-03-18T01:13:28.718Z,4.00
2018-03-18T01:14:28.693Z,4.00
2018-03-18T01:16:21.674Z,4.00
2018-03-18T01:17:21.676Z,4.00
2018-03-18T01:19:15.032Z,4.00
2018-03-18T01:20:15.032Z,4.00
2018-03-18T01:22:08.948Z,4.00
2018-03-18T01:23:07.979Z,4.00
2018-03-18T01:25:01.067Z,4.00
2018-03-18T01:26:01.920Z,4.00
2018-03-18T01:27:53.958Z,4.00
2018-03-18T01:28:53.906Z,4.00
2018-03-18T01:30:46.892Z,4.00
2018-03-18T01:31:46.867Z,4.00
2018-03-18T01:33:39.932Z,4.00
2018-03-18T01:34:41.783Z,4.00
2018-03-18T01:35:39.913Z,4.00
2018-03-18T01:36:39.974Z,4.00
2018-03-18T01:37:39.926Z,4.00
2018-03-18T01:38:39.895Z,4.00
2018-03-18T01:39:39.906Z,4.00
2018-03-18T01:40:39.912Z,4.00
2018-03-18T01:41:39.898Z,4.00
2018-03-18T01:42:39.888Z,4.00
2018-03-18T01:43:39.895Z,4.00
2018-03-18T01:44:39.902Z,4.00
2018-03-18T01:45:41.774Z,4.00
2018-03-18T01:46:39.884Z,4.00
2018-03-18T01:47:39.885Z,4.00
2018-03-18T01:48:39.872Z,4.00
2018-03-18T01:49:39.873Z,4.00
2018-03-18T01:50:39.883Z,4.00
2018-03-18T01:51:39.867Z,4.00
2018-03-18T01:52:39.870Z,4.00
2018-03-18T01:53:39.861Z,4.00
2018-03-18T01:54:39.868Z,4.00
2018-03-18T01:55:39.862Z,4.00
2018-03-18T01:56:39.867Z,4.00
2018-03-18T01:57:39.863Z,4.00
2018-03-18T01:58:39.864Z,4.00
2018-03-18T01:59:39.861Z,4.00
2018-03-18T02:00:39.865Z,4.00
2018-03-18T02:01:39.851Z,4.00
2018-03-18T02:02:39.854Z,4.00
2018-03-18T02:03:39.853Z,4.00
2018-03-18T02:04:39.842Z,4.00
2018-03-18T02:05:39.841Z,4.00
2018-03-18T02:06:39.840Z,4.00
2018-03-18T02:07:39.834Z,4.00
2018-03-18T02:08:39.825Z,4.00
2018-03-18T02:09:39.836Z,4.00
2018-03-18T02:10:39.834Z,4.00
2018-03-18T02:11:39.852Z,4.00
2018-03-18T02:12:39.820Z,4.00
2018-03-18T02:13:39.824Z,4.00
2018-03-18T02:14:39.885Z,4.00
2018-03-18T02:15:39.809Z,4.00
2018-03-18T02:16:39.813Z,4.00
2018-03-18T02:17:39.806Z,4.00
2018-03-18T02:18:39.810Z,4.00
2018-03-18T02:19:40.805Z,4.00
2018-03-18T02:20:39.796Z,8.00
2018-03-18T02:21:39.811Z,4.00
2018-03-18T02:22:39.800Z,4.00
2018-03-18T02:23:39.788Z,4.00
2018-03-18T02:24:39.795Z,4.00
2018-03-18T02:25:39.801Z,4.00
2018-03-18T02:26:39.788Z,4.00
2018-03-18T02:27:39.784Z,4.00
2018-03-18T02:28:39.784Z,4.00
2018-03-18T02:29:39.784Z,4.00
2018-03-18T02:30:39.776Z,4.00
2018-03-18T02:31:39.790Z,4.00
2018-03-18T02:32:39.775Z,4.00
2018-03-18T02:33:39.779Z,4.00
2018-03-18T02:34:39.779Z,4.00
2018-03-18T02:35:39.819Z,4.00
2018-03-18T02:36:39.769Z,4.00
2018-03-18T02:37:39.769Z,4.00
2018-03-18T02:38:39.764Z,4.00
2018-03-18T02:39:39.759Z,4.00
2018-03-18T02:40:39.758Z,4.00
2018-03-18T02:41:39.818Z,4.00
2018-03-18T02:42:39.741Z,4.00
2018-03-18T02:43:39.777Z,4.00
2018-03-18T02:44:39.751Z,4.00
2018-03-18T02:45:39.786Z,4.00
2018-03-18T02:46:39.755Z,4.00
2018-03-18T02:47:39.738Z,4.00
2018-03-18T02:48:39.746Z,4.00
2018-03-18T02:49:39.738Z,4.00
2018-03-18T02:50:39.730Z,4.00
2018-03-18T02:51:39.725Z,4.00
2018-03-18T02:52:39.731Z,4.00
2018-03-18T02:53:39.745Z,4.00
2018-03-18T02:54:39.722Z,4.00
2018-03-18T02:55:39.730Z,4.00
2018-03-18T02:56:39.722Z,4.00
2018-03-18T02:57:39.737Z,4.00
2018-03-18T02:58:39.710Z,4.00
2018-03-18T02:59:39.736Z,4.00
2018-03-18T03:00:39.705Z,4.00
2018-03-18T03:01:39.711Z,4.00
2018-03-18T03:02:39.703Z,4.00
2018-03-18T03:03:39.704Z,4.00
2018-03-18T03:04:39.690Z,4.00
2018-03-18T03:05:39.700Z,4.00
2018-03-18T03:06:39.697Z,4.00
2018-03-18T03:07:39.708Z,4.00
2018-03-18T03:08:39.699Z,4.00
2018-03-18T03:09:39.693Z,4.00
2018-03-18T03:10:40.293Z,4.00
2018-03-18T03:11:39.674Z,4.00
2018-03-18T03:12:39.675Z,4.00
2018-03-18T03:13:39.673Z,4.00
2018-03-18T03:14:39.677Z,4.00
2018-03-18T03:15:39.662Z,4.00
2018-03-18T03:16:39.668Z,4.00
2018-03-18T03:17:39.661Z,4.00
2018-03-18T03:18:39.673Z,4.00
2018-03-18T03:19:39.663Z,4.00
2018-03-18T03:20:39.690Z,4.00
2018-03-18T03:21:39.648Z,4.00
2018-03-18T03:22:39.652Z,4.00
2018-03-18T03:23:39.646Z,4.00
2018-03-18T03:24:39.644Z,4.00
2018-03-18T03:25:39.695Z,4.00
2018-03-18T03:26:39.646Z,8.00
2018-03-18T03:27:39.643Z,4.00
2018-03-18T03:28:39.662Z,4.00
2018-03-18T03:29:39.692Z,4.00
2018-03-18T03:30:39.632Z,4.00
2018-03-18T03:31:39.653Z,4.00
2018-03-18T03:32:39.724Z,4.00
2018-03-18T03:33:39.626Z,4.00
2018-03-18T03:34:39.621Z,4.00
2018-03-18T03:35:39.620Z,4.00
2018-03-18T03:36:39.612Z,4.00
2018-03-18T03:37:39.624Z,4.00
2018-03-18T03:38:39.622Z,4.00
2018-03-18T03:39:39.607Z,4.00
2018-03-18T03:40:39.602Z,4.00
2018-03-18T03:41:39.671Z,4.00
2018-03-18T03:42:39.614Z,4.00
2018-03-18T03:43:39.606Z,4.00
2018-03-18T03:44:39.592Z,4.00
2018-03-18T03:45:39.601Z,4.00
2018-03-18T03:46:39.647Z,4.00
2018-03-18T03:47:39.583Z,4.00
2018-03-18T03:48:39.589Z,4.00
2018-03-18T03:49:39.603Z,4.00
2018-03-18T03:50:39.581Z,4.00
2018-03-18T03:51:39.572Z,4.00
2018-03-18T03:52:39.575Z,4.00
2018-03-18T03:53:39.592Z,4.00
2018-03-18T03:54:39.561Z,4.00
2018-03-18T03:55:39.570Z,4.00
2018-03-18T03:56:39.568Z,4.00
2018-03-18T03:57:39.568Z,4.00
2018-03-18T03:58:39.553Z,4.00
2018-03-18T03:59:39.554Z,4.00
2018-03-18T04:00:39.550Z,4.00
2018-03-18T04:01:39.558Z,4.00
2018-03-18T04:02:39.544Z,4.00
2018-03-18T04:03:39.557Z,4.00
2018-03-18T04:04:39.545Z,4.00
2018-03-18T04:05:39.554Z,4.00
2018-03-18T04:06:39.539Z,4.00
2018-03-18T04:07:39.548Z,4.00
2018-03-18T04:08:40.301Z,4.00
2018-03-18T04:09:39.530Z,4.00
2018-03-18T04:10:39.527Z,4.00
2018-03-18T04:11:39.534Z,4.00
2018-03-18T04:12:39.521Z,4.00
2018-03-18T04:13:39.534Z,4.00
2018-03-18T04:14:39.577Z,4.00
2018-03-18T04:15:39.531Z,4.00
2018-03-18T04:16:39.576Z,4.00
2018-03-18T04:17:39.522Z,4.00
2018-03-18T04:18:39.507Z,4.00
2018-03-18T04:19:39.500Z,4.00
2018-03-18T04:20:39.506Z,4.00
2018-03-18T04:21:39.496Z,4.00
2018-03-18T04:22:39.502Z,4.00
2018-03-18T04:23:39.488Z,4.00
2018-03-18T04:24:41.298Z,4.00
2018-03-18T04:25:39.493Z,4.00
2018-03-18T04:26:39.487Z,4.00
2018-03-18T04:27:39.493Z,4.00
2018-03-18T04:28:39.501Z,4.00
2018-03-18T04:29:39.479Z,4.00
2018-03-18T04:30:39.473Z,4.00
2018-03-18T04:31:39.473Z,4.00
2018-03-18T04:32:39.477Z,4.00
2018-03-18T04:33:39.473Z,4.00
2018-03-18T04:34:39.471Z,4.00
2018-03-18T04:35:39.459Z,4.00
2018-03-18T04:36:39.567Z,4.00
2018-03-18T04:37:39.455Z,4.00
2018-03-18T04:38:39.478Z,4.00
2018-03-18T04:39:40.321Z,4.00
2018-03-18T04:40:39.462Z,4.00
2018-03-18T04:41:39.445Z,4.00
2018-03-18T04:42:39.451Z,4.00
2018-03-18T04:43:39.441Z,4.00
2018-03-18T04:44:39.446Z,4.00
2018-03-18T04:45:39.437Z,4.00
2018-03-18T04:46:39.426Z,4.00
2018-03-18T04:47:39.446Z,4.00
2018-03-18T04:48:39.465Z,4.00
2018-03-18T04:49:39.443Z,4.00
2018-03-18T04:50:39.431Z,4.00
2018-03-18T04:51:39.421Z,4.00
2018-03-18T04:52:39.411Z,4.00
2018-03-18T04:53:39.437Z,4.00
2018-03-18T04:54:39.412Z,4.00
2018-03-18T04:55:39.399Z,4.00
2018-03-18T04:56:41.297Z,4.00
2018-03-18T04:57:39.420Z,4.00
2018-03-18T04:58:39.409Z,4.00
2018-03-18T04:59:39.406Z,4.00
2018-03-18T05:00:39.379Z,4.00
2018-03-18T05:01:39.390Z,4.00
2018-03-18T05:02:39.391Z,4.00
2018-03-18T05:03:39.379Z,4.00
2018-03-18T05:04:39.378Z,4.00
2018-03-18T05:05:39.370Z,8.00
2018-03-18T05:06:39.369Z,8.00
2018-03-18T05:07:39.369Z,4.00
2018-03-18T05:08:40.178Z,4.00
2018-03-18T05:09:40.019Z,4.00
2018-03-18T05:10:39.367Z,8.00
2018-03-18T05:11:39.363Z,8.00
2018-03-18T05:12:39.349Z,8.00
2018-03-18T05:13:39.353Z,8.00
2018-03-18T05:14:39.361Z,8.00
2018-03-18T05:15:39.348Z,8.00
2018-03-18T05:16:39.341Z,8.00
2018-03-18T05:17:39.347Z,12.00
2018-03-18T05:18:39.475Z,12.00
2018-03-18T05:19:39.330Z,12.00
2018-03-18T05:20:39.336Z,16.00
2018-03-18T05:21:39.330Z,16.00
2018-03-18T05:22:39.334Z,12.00
2018-03-18T05:23:39.318Z,16.00
2018-03-18T05:24:39.320Z,16.00
2018-03-18T05:25:39.308Z,20.00
2018-03-18T05:26:39.317Z,24.00
2018-03-18T05:27:39.323Z,28.00
2018-03-18T05:28:39.324Z,28.00
2018-03-18T05:29:39.306Z,36.00
2018-03-18T05:30:39.312Z,36.00
2018-03-18T05:31:39.307Z,44.00
2018-03-18T05:32:39.315Z,44.00
2018-03-18T05:33:39.307Z,48.00
2018-03-18T05:34:39.329Z,56.00
2018-03-18T05:35:39.291Z,56.00
2018-03-18T05:36:39.282Z,64.00
2018-03-18T05:37:39.280Z,68.00
2018-03-18T05:38:39.303Z,76.00
2018-03-18T05:39:39.382Z,84.00
2018-03-18T05:40:39.307Z,92.00
2018-03-18T05:41:39.275Z,96.00
2018-03-18T05:42:39.266Z,104.00
2018-03-18T05:43:39.378Z,116.00
2018-03-18T05:44:39.297Z,124.00
2018-03-18T05:45:39.259Z,132.00
2018-03-18T05:46:39.251Z,144.00
2018-03-18T05:47:39.244Z,156.00
2018-03-18T05:48:39.259Z,164.00
2018-03-18T05:49:39.249Z,176.00
2018-03-18T05:50:39.351Z,188.00
2018-03-18T05:51:39.241Z,200.00
2018-03-18T05:52:39.243Z,212.00
2018-03-18T05:53:39.237Z,228.00
2018-03-18T05:54:39.241Z,244.00
2018-03-18T05:55:39.220Z,260.00
2018-03-18T05:56:39.229Z,280.00
2018-03-18T05:57:39.215Z,304.00
2018-03-18T05:58:39.225Z,328.00
2018-03-18T05:59:39.215Z,348.00
2018-03-18T06:00:39.211Z,376.00
2018-03-18T06:01:39.260Z,404.00
2018-03-18T06:02:39.224Z,428.00
2018-03-18T06:03:39.214Z,460.00
2018-03-18T06:04:39.212Z,492.00
2018-03-18T06:05:39.200Z,524.00
2018-03-18T06:06:39.195Z,560.00
2018-03-18T06:07:39.202Z,600.00
2018-03-18T06:08:39.190Z,640.00
2018-03-18T06:09:39.192Z,672.00
2018-03-18T06:10:39.184Z,708.00
2018-03-18T06:11:39.222Z,748.00
2018-03-18T06:12:39.188Z,792.00
2018-03-18T06:13:39.176Z,840.00
2018-03-18T06:14:39.181Z,888.00
2018-03-18T06:15:39.180Z,936.00
2018-03-18T06:16:39.180Z,980.00
2018-03-18T06:17:39.181Z,1036.00
2018-03-18T06:18:39.156Z,1088.00
2018-03-18T06:19:39.169Z,1140.00
2018-03-18T06:20:39.215Z,1196.00
2018-03-18T06:21:39.151Z,1248.00
2018-03-18T06:22:39.156Z,1304.00
2018-03-18T06:23:39.170Z,1352.00
2018-03-18T06:24:39.161Z,1396.00
2018-03-18T06:25:39.150Z,1448.00
2018-03-18T06:26:39.142Z,1492.00
2018-03-18T06:27:39.151Z,1540.00
2018-03-18T06:28:39.156Z,1596.00
2018-03-18T06:29:39.128Z,1652.00
2018-03-18T06:30:39.127Z,1720.00
2018-03-18T06:31:39.140Z,1760.00
2018-03-18T06:32:39.124Z,1788.00
2018-03-18T06:33:39.122Z,1820.00
2018-03-18T06:34:39.124Z,1852.00
2018-03-18T06:35:39.129Z,1908.00
2018-03-18T06:36:39.149Z,1980.00
2018-03-18T06:37:39.130Z,2056.00
2018-03-18T06:38:39.112Z,2132.00
2018-03-18T06:39:39.133Z,2192.00
2018-03-18T06:40:39.097Z,2232.00
2018-03-18T06:41:39.105Z,2284.00
2018-03-18T06:42:39.095Z,2320.00
2018-03-18T06:43:39.098Z,2368.00
2018-03-18T06:44:39.203Z,2420.00
2018-03-18T06:45:39.106Z,2468.00
2018-03-18T06:46:39.816Z,2516.00
2018-03-18T06:47:39.091Z,2548.00
2018-03-18T06:48:39.081Z,2616.00
2018-03-18T06:49:39.089Z,2664.00
2018-03-18T06:50:39.107Z,2748.00
2018-03-18T06:51:39.078Z,2808.00
2018-03-18T06:52:39.078Z,2828.00
2018-03-18T06:53:39.073Z,2860.00
2018-03-18T06:54:39.093Z,2968.00
2018-03-18T06:55:39.143Z,3036.00
2018-03-18T06:56:39.074Z,3076.00
2018-03-18T06:57:39.060Z,3144.00
2018-03-18T06:58:41.832Z,3168.00
2018-03-18T06:59:39.058Z,3140.00
2018-03-18T07:00:39.205Z,3156.00
2018-03-18T07:01:39.067Z,3264.00
2018-03-18T07:02:39.132Z,3384.00
2018-03-18T07:03:39.050Z,3456.00
2018-03-18T07:04:39.046Z,3696.00
2018-03-18T07:05:39.048Z,3876.00
2018-03-18T07:06:39.051Z,3872.00
2018-03-18T07:07:39.035Z,3940.00
2018-03-18T07:08:39.038Z,4032.00
2018-03-18T07:09:39.034Z,4072.00
2018-03-18T07:10:39.044Z,4120.00
2018-03-18T07:11:39.030Z,4844.00
2018-03-18T07:12:39.064Z,5216.00
2018-03-18T07:13:39.041Z,5612.00
2018-03-18T07:14:39.022Z,6192.00
2018-03-18T07:15:39.027Z,8108.00
2018-03-18T07:16:39.027Z,8056.00
2018-03-18T07:17:39.070Z,5736.00
2018-03-18T07:18:39.015Z,8708.00
2018-03-18T07:19:39.018Z,7028.00
2018-03-18T07:20:39.020Z,5128.00
2018-03-18T07:21:39.014Z,4836.00
2018-03-18T07:22:39.010Z,4452.00
2018-03-18T07:23:39.009Z,4256.00
2018-03-18T07:24:40.761Z,4248.00
2018-03-18T07:25:39.011Z,4140.00
2018-03-18T07:26:39.084Z,4116.00
2018-03-18T07:27:39.004Z,4080.00
2018-03-18T07:28:39.034Z,4036.00
2018-03-18T07:29:38.997Z,3984.00
2018-03-18T07:30:38.997Z,3872.00
2018-03-18T07:31:38.987Z,3796.00
2018-03-18T07:32:38.991Z,4004.00
2018-03-18T07:33:38.996Z,4500.00
2018-03-18T07:34:38.993Z,3848.00
2018-03-18T07:35:38.985Z,3936.00
2018-03-18T07:36:38.983Z,4172.00
2018-03-18T07:37:38.997Z,4428.00
2018-03-18T07:38:39.082Z,3996.00
2018-03-18T07:39:38.981Z,3936.00
2018-03-18T07:40:38.975Z,3848.00
2018-03-18T07:41:38.981Z,3892.00
2018-03-18T07:42:38.977Z,3880.00
2018-03-18T07:43:38.993Z,3880.00
2018-03-18T07:44:39.070Z,3908.00
2018-03-18T07:45:38.973Z,3924.00
2018-03-18T07:46:39.067Z,3996.00
2018-03-18T07:47:38.987Z,4040.00
2018-03-18T07:48:38.972Z,4040.00
2018-03-18T07:49:38.971Z,4040.00
2018-03-18T07:50:38.962Z,4040.00
2018-03-18T07:51:38.986Z,4036.00
2018-03-18T07:52:38.960Z,4124.00
2018-03-18T07:53:39.089Z,4172.00
2018-03-18T07:54:38.946Z,4196.00
2018-03-18T07:55:38.985Z,4216.00
2018-03-18T07:56:38.950Z,4244.00
2018-03-18T07:57:38.947Z,4256.00
2018-03-18T07:58:38.951Z,4244.00
2018-03-18T07:59:38.958Z,4216.00
2018-03-18T08:00:38.945Z,4200.00
2018-03-18T08:01:38.951Z,4228.00
2018-03-18T08:02:38.946Z,4236.00
2018-03-18T08:03:39.085Z,4236.00
2018-03-18T08:04:38.935Z,4244.00
2018-03-18T08:05:38.995Z,4248.00
2018-03-18T08:06:38.929Z,4296.00
2018-03-18T08:07:38.931Z,4360.00
2018-03-18T08:08:38.924Z,4408.00
2018-03-18T08:09:38.923Z,4480.00
2018-03-18T08:10:38.930Z,4544.00
2018-03-18T08:11:38.918Z,4616.00
2018-03-18T08:12:38.928Z,4660.00
2018-03-18T08:13:38.931Z,4704.00
2018-03-18T08:14:38.931Z,4768.00
2018-03-18T08:15:38.918Z,4816.00
2018-03-18T08:16:38.913Z,4832.00
2018-03-18T08:17:38.936Z,4812.00
2018-03-18T08:18:38.907Z,4852.00
2018-03-18T08:19:38.902Z,4948.00
2018-03-18T08:20:38.900Z,5044.00
2018-03-18T08:21:38.969Z,5092.00
2018-03-18T08:22:38.912Z,5164.00
2018-03-18T08:23:38.899Z,5264.00
2018-03-18T08:24:38.895Z,5392.00
2018-03-18T08:25:38.896Z,5532.00
2018-03-18T08:26:38.902Z,5696.00
2018-03-18T08:27:39.023Z,5928.00
2018-03-18T08:28:38.900Z,6076.00
2018-03-18T08:29:38.892Z,6192.00
2018-03-18T08:30:38.891Z,6312.00
2018-03-18T08:31:38.901Z,6436.00
2018-03-18T08:32:38.885Z,6556.00
2018-03-18T08:33:38.909Z,6500.00
2018-03-18T08:34:38.884Z,6456.00
2018-03-18T08:35:38.877Z,6412.00
2018-03-18T08:36:38.925Z,6460.00
2018-03-18T08:37:38.878Z,6544.00
2018-03-18T08:38:38.885Z,6796.00
2018-03-18T08:39:38.888Z,7104.00
2018-03-18T08:40:38.891Z,7292.00
2018-03-18T08:41:38.898Z,7400.00
2018-03-18T08:42:38.931Z,7552.00
2018-03-18T08:43:38.878Z,7544.00
2018-03-18T08:44:38.871Z,7580.00
2018-03-18T08:45:38.865Z,7628.00
2018-03-18T08:46:38.868Z,7772.00
2018-03-18T08:47:38.869Z,7876.00
2018-03-18T08:48:38.867Z,8032.00
2018-03-18T08:49:38.867Z,7888.00
2018-03-18T08:50:38.869Z,7496.00
2018-03-18T08:51:38.868Z,7288.00
2018-03-18T08:52:38.872Z,7316.00
2018-03-18T08:53:38.880Z,7500.00
2018-03-18T08:54:38.868Z,7716.00
2018-03-18T08:55:39.839Z,7792.00
2018-03-18T08:56:38.855Z,7644.00
2018-03-18T08:57:38.939Z,7532.00
2018-03-18T08:58:38.963Z,7584.00
2018-03-18T08:59:38.860Z,7692.00
2018-03-18T09:00:38.958Z,7696.00
2018-03-18T09:02:01.868Z,7756.00
2018-03-18T09:02:38.940Z,8044.00
2018-03-18T09:03:42.875Z,8160.00
2018-03-18T09:04:39.970Z,7936.00
2018-03-18T09:05:38.868Z,8028.00
2018-03-18T09:06:38.877Z,8672.00
2018-03-18T09:07:41.360Z,8340.00
2018-03-18T09:08:38.967Z,8136.00
2018-03-18T09:09:38.892Z,8268.00
2018-03-18T09:10:38.880Z,8716.00
2018-03-18T09:11:40.388Z,8600.00
2018-03-18T09:12:38.907Z,8464.00
2018-03-18T09:13:40.393Z,8456.00
2018-03-18T09:14:38.871Z,8464.00
2018-03-18T09:15:38.862Z,8656.00
2018-03-18T09:16:38.887Z,9000.00
2018-03-18T09:17:38.877Z,8900.00
2018-03-18T09:18:38.905Z,9456.00
2018-03-18T09:19:38.944Z,9684.00
2018-03-18T09:20:38.878Z,9252.00
2018-03-18T09:21:38.996Z,9468.00
2018-03-18T09:22:41.407Z,10104.00
2018-03-18T09:23:40.369Z,9428.00
2018-03-18T09:24:42.379Z,9424.00
2018-03-18T09:25:38.840Z,9648.00
2018-03-18T09:26:38.941Z,9896.00
2018-03-18T09:27:38.853Z,10272.00
2018-03-18T09:28:38.868Z,10572.00
2018-03-18T09:29:38.900Z,10956.00
2018-03-18T09:30:38.849Z,11556.00
2018-03-18T09:31:38.955Z,12380.00
2018-03-18T09:32:38.981Z,13112.00
2018-03-18T09:33:41.368Z,15316.00
2018-03-18T09:34:40.382Z,13496.00
2018-03-18T09:35:38.908Z,13912.00
2018-03-18T09:36:38.877Z,15860.00
2018-03-18T09:37:41.382Z,15652.00
2018-03-18T09:38:38.856Z,14936.00
2018-03-18T09:39:40.433Z,14692.00
2018-03-18T09:40:38.907Z,14920.00
2018-03-18T09:41:41.410Z,15920.00
2018-03-18T09:42:38.896Z,16068.00
2018-03-18T09:43:38.841Z,16480.00
2018-03-18T09:44:38.867Z,16512.00
2018-03-18T09:45:38.908Z,16024.00
2018-03-18T09:46:38.846Z,16448.00
2018-03-18T09:47:38.905Z,16992.00
2018-03-18T09:48:38.928Z,16960.00
2018-03-18T09:49:38.940Z,17664.00
2018-03-18T09:50:40.393Z,22688.00
2018-03-18T09:51:40.414Z,20000.00
2018-03-18T09:52:41.440Z,20288.00
2018-03-18T09:53:41.374Z,22816.00
2018-03-18T09:54:40.354Z,35936.00
2018-03-18T09:55:38.911Z,26528.00
2018-03-18T09:56:38.897Z,19648.00
2018-03-18T09:57:41.383Z,23168.00
2018-03-18T09:58:38.881Z,19392.00
2018-03-18T09:59:41.412Z,18112.00
2018-03-18T10:00:38.875Z,17216.00
2018-03-18T10:01:42.380Z,16864.00
2018-03-18T10:02:38.906Z,15960.00
2018-03-18T10:03:41.364Z,16136.00
2018-03-18T10:04:38.936Z,16928.00
2018-03-18T10:05:38.893Z,18048.00
2018-03-18T10:06:39.900Z,19104.00
2018-03-18T10:07:38.882Z,18080.00
2018-03-18T10:08:38.937Z,18336.00
2018-03-18T10:09:38.944Z,22880.00
2018-03-18T10:10:38.910Z,22752.00
2018-03-18T10:11:38.944Z,21792.00
2018-03-18T10:12:40.916Z,19136.00
2018-03-18T10:13:39.035Z,22624.00
2018-03-18T10:14:38.977Z,18656.00
2018-03-18T10:15:39.981Z,19168.00
2018-03-18T10:16:38.925Z,19200.00
2018-03-18T10:17:46.906Z,20608.00
2018-03-18T10:18:38.884Z,23456.00
2018-03-18T10:19:38.983Z,18368.00
2018-03-18T10:20:41.919Z,16832.00
2018-03-18T10:21:38.929Z,35584.00
2018-03-18T10:22:38.924Z,21920.00
2018-03-18T10:23:38.958Z,25920.00
2018-03-18T10:24:38.946Z,27360.00
2018-03-18T10:25:40.921Z,16384.00
2018-03-18T10:26:41.879Z,14756.00
2018-03-18T10:27:41.863Z,14392.00
2018-03-18T10:28:38.977Z,14776.00
2018-03-18T10:29:38.955Z,14544.00
2018-03-18T10:30:40.892Z,14884.00
2018-03-18T10:31:40.873Z,16260.00
2018-03-18T10:32:39.060Z,15604.00
2018-03-18T10:33:38.938Z,15436.00
2018-03-18T10:34:38.935Z,14084.00
2018-03-18T10:35:38.970Z,13664.00
2018-03-18T10:36:42.862Z,13820.00
2018-03-18T10:37:38.953Z,14052.00
2018-03-18T10:38:38.979Z,18880.00
2018-03-18T10:39:38.992Z,13652.00
2018-03-18T10:40:40.903Z,14236.00
2018-03-18T10:41:39.991Z,13856.00
2018-03-18T10:42:38.987Z,13328.00
2018-03-18T10:43:38.945Z,12928.00
2018-03-18T10:44:41.913Z,12844.00
2018-03-18T10:45:38.975Z,13000.00
2018-03-18T10:46:40.875Z,12868.00
2018-03-18T10:47:38.976Z,13036.00
2018-03-18T10:48:40.912Z,13304.00
2018-03-18T10:49:38.961Z,12976.00
2018-03-18T10:50:38.984Z,13120.00
2018-03-18T10:51:40.898Z,13320.00
2018-03-18T10:52:40.996Z,13588.00
2018-03-18T10:53:39.036Z,13788.00
2018-03-18T10:54:41.886Z,13748.00
2018-03-18T10:55:41.869Z,13704.00
2018-03-18T10:56:39.012Z,13896.00
2018-03-18T10:57:41.871Z,14308.00
2018-03-18T10:58:39.031Z,13964.00
2018-03-18T10:59:41.910Z,14060.00
2018-03-18T11:00:40.928Z,13812.00
2018-03-18T11:01:41.927Z,13608.00
2018-03-18T11:02:38.999Z,13780.00
2018-03-18T11:03:41.876Z,13868.00
2018-03-18T11:04:41.922Z,13740.00
2018-03-18T11:05:39.063Z,13788.00
2018-03-18T11:06:41.902Z,13756.00
2018-03-18T11:07:39.020Z,13696.00
2018-03-18T11:08:41.910Z,13692.00
2018-03-18T11:09:40.896Z,13752.00
2018-03-18T11:10:41.900Z,13992.00
2018-03-18T11:11:40.894Z,14324.00
2018-03-18T11:12:39.016Z,14800.00
2018-03-18T11:13:40.992Z,15248.00
2018-03-18T11:14:39.024Z,15384.00
2018-03-18T11:15:40.892Z,15376.00
2018-03-18T11:16:39.042Z,17024.00
2018-03-18T11:17:41.891Z,19328.00
2018-03-18T11:18:40.907Z,20992.00
2018-03-18T11:19:39.006Z,21184.00
2018-03-18T11:20:39.008Z,26688.00
2018-03-18T11:21:40.933Z,25984.00
2018-03-18T11:22:38.996Z,36832.00
2018-03-18T11:23:39.025Z,40992.00
2018-03-18T11:24:40.920Z,29984.00
2018-03-18T11:25:40.919Z,20576.00
2018-03-18T11:26:42.914Z,18464.00
2018-03-18T11:27:40.897Z,18784.00
2018-03-18T11:28:39.106Z,20064.00
2018-03-18T11:29:41.875Z,25920.00
2018-03-18T11:30:39.482Z,19424.00
2018-03-18T11:31:39.024Z,19040.00
2018-03-18T11:32:40.892Z,24352.00
2018-03-18T11:33:40.892Z,24896.00
2018-03-18T11:34:40.937Z,20960.00
2018-03-18T11:35:39.090Z,18656.00
2018-03-18T11:36:39.082Z,20064.00
2018-03-18T11:37:40.924Z,20704.00
2018-03-18T11:38:39.108Z,21056.00
2018-03-18T11:39:39.080Z,18656.00
2018-03-18T11:40:39.205Z,17760.00
2018-03-18T11:41:40.960Z,15944.00
2018-03-18T11:42:39.089Z,15536.00
2018-03-18T11:43:39.067Z,15492.00
2018-03-18T11:44:40.899Z,16008.00
2018-03-18T11:45:39.088Z,15976.00
2018-03-18T11:46:40.905Z,17120.00
2018-03-18T11:47:39.100Z,20672.00
2018-03-18T11:48:40.921Z,20320.00
2018-03-18T11:49:39.066Z,21696.00
2018-03-18T11:50:39.089Z,28640.00
2018-03-18T11:51:39.104Z,34368.00
2018-03-18T11:52:44.881Z,29696.00
2018-03-18T11:53:39.094Z,24384.00
2018-03-18T11:54:40.963Z,21056.00
2018-03-18T11:55:40.063Z,23232.00
2018-03-18T11:56:39.082Z,23968.00
2018-03-18T11:57:39.062Z,27264.00
2018-03-18T11:58:39.138Z,29536.00
2018-03-18T11:59:39.117Z,36832.00
2018-03-18T12:00:41.927Z,43744.00
2018-03-18T12:01:40.889Z,43744.00
2018-03-18T12:02:39.152Z,47872.00
2018-03-18T12:03:39.086Z,36384.00
2018-03-18T12:04:39.150Z,17376.00
2018-03-18T12:05:39.163Z,12204.00
2018-03-18T12:06:39.095Z,11880.00
2018-03-18T12:07:40.912Z,11620.00
2018-03-18T12:08:39.133Z,11452.00
2018-03-18T12:09:40.083Z,11256.00
2018-03-18T12:10:39.139Z,11160.00
2018-03-18T12:11:39.162Z,10856.00
2018-03-18T12:12:39.296Z,10628.00
2018-03-18T12:13:39.136Z,10120.00
2018-03-18T12:14:41.944Z,10124.00
2018-03-18T12:15:39.116Z,9864.00
2018-03-18T12:16:39.127Z,9456.00
2018-03-18T12:17:39.115Z,9768.00
2018-03-18T12:18:39.117Z,9488.00
2018-03-18T12:19:39.158Z,9420.00
2018-03-18T12:20:40.947Z,9336.00
2018-03-18T12:21:39.113Z,9244.00
2018-03-18T12:22:39.127Z,9128.00
2018-03-18T12:23:39.116Z,9112.00
2018-03-18T12:24:39.197Z,9040.00
2018-03-18T12:25:42.924Z,8776.00
2018-03-18T12:26:39.149Z,8848.00
2018-03-18T12:27:39.244Z,8736.00
2018-03-18T12:28:39.152Z,8732.00
2018-03-18T12:29:39.124Z,8676.00
2018-03-18T12:30:39.111Z,8572.00
2018-03-18T12:31:39.125Z,8416.00
2018-03-18T12:32:40.117Z,8424.00
2018-03-18T12:33:39.141Z,8340.00
2018-03-18T12:34:39.122Z,8360.00
2018-03-18T12:35:39.161Z,8204.00
2018-03-18T12:36:39.133Z,8244.00
2018-03-18T12:37:40.881Z,8180.00
2018-03-18T12:38:39.153Z,8124.00
2018-03-18T12:39:39.150Z,8056.00
2018-03-18T12:40:40.903Z,8004.00
2018-03-18T12:41:40.927Z,7952.00
2018-03-18T12:42:41.893Z,7880.00
2018-03-18T12:43:39.390Z,7812.00
2018-03-18T12:44:39.123Z,7756.00
2018-03-18T12:45:40.317Z,7500.00
2018-03-18T12:46:39.131Z,7564.00
2018-03-18T12:47:40.927Z,7456.00
2018-03-18T12:48:39.167Z,7344.00
2018-03-18T12:49:39.174Z,7276.00
2018-03-18T12:50:39.159Z,7200.00
2018-03-18T12:51:39.203Z,7104.00
2018-03-18T12:52:40.908Z,7064.00
2018-03-18T12:53:39.142Z,6896.00
2018-03-18T12:54:39.227Z,6944.00
2018-03-18T12:55:41.892Z,6872.00
2018-03-18T12:56:40.906Z,6788.00
2018-03-18T12:57:40.188Z,6672.00